sensor_id;sensor_type;location;lat;lon;timestamp;P1;durP1;ratioP1;P2;durP2;ratioP2
2211;SDS011;48849;48.758;9.158;2024-01-27T00:02:13;2.97;;;2.05;;
2211;SDS011;48849;48.758;9.158;2024-01-27T00:04:41;3.85;;;1.65;;
2211;SDS011;48849;48.758;9.158;2024-01-27T00:07:09;4.78;;;2.10;;
2211;SDS011;48849;48.758;9.158;2024-01-27T00:09:35;3.85;;;1.98;;
2211;SDS011;48849;48.758;9.158;2024-01-27T00:12:02;2.92;;;1.60;;
2211;SDS011;48849;48.758;9.158;2024-01-27T00:14:29;4.15;;;1.77;;
2211;SDS011;48849;48.758;9.158;2024-01-27T00:16:56;4.35;;;1.60;;
2211;SDS011;48849;48.758;9.158;2024-01-27T00:19:23;3.50;;;1.80;;
2211;SDS011;48849;48.758;9.158;2024-01-27T00:21:49;2.20;;;1.50;;
2211;SDS011;48849;48.758;9.158;2024-01-27T00:24:18;1.90;;;1.65;;
2211;SDS011;48849;48.758;9.158;2024-01-27T00:26:45;2.65;;;1.70;;
2211;SDS011;48849;48.758;9.158;2024-01-27T00:29:11;2.58;;;1.73;;
2211;SDS011;48849;48.758;9.158;2024-01-27T00:31:38;3.55;;;1.83;;
2211;SDS011;48849;48.758;9.158;2024-01-27T00:34:05;5.18;;;2.13;;
2211;SDS011;48849;48.758;9.158;2024-01-27T00:36:31;2.97;;;2.25;;
2211;SDS011;48849;48.758;9.158;2024-01-27T00:39:01;4.15;;;2.55;;
2211;SDS011;48849;48.758;9.158;2024-01-27T00:41:30;5.20;;;2.83;;
2211;SDS011;48849;48.758;9.158;2024-01-27T00:43:56;3.78;;;2.20;;
2211;SDS011;48849;48.758;9.158;2024-01-27T00:46:23;6.88;;;3.50;;
2211;SDS011;48849;48.758;9.158;2024-01-27T00:48:50;5.78;;;2.80;;
2211;SDS011;48849;48.758;9.158;2024-01-27T00:51:16;4.45;;;2.58;;
2211;SDS011;48849;48.758;9.158;2024-01-27T00:53:44;3.63;;;2.83;;
2211;SDS011;48849;48.758;9.158;2024-01-27T00:56:10;5.05;;;3.08;;
2211;SDS011;48849;48.758;9.158;2024-01-27T00:58:39;5.07;;;2.60;;
2211;SDS011;48849;48.758;9.158;2024-01-27T01:01:06;5.57;;;2.70;;
2211;SDS011;48849;48.758;9.158;2024-01-27T01:03:33;2.80;;;2.00;;
2211;SDS011;48849;48.758;9.158;2024-01-27T01:06:00;7.95;;;2.85;;
2211;SDS011;48849;48.758;9.158;2024-01-27T01:08:26;3.72;;;2.20;;
2211;SDS011;48849;48.758;9.158;2024-01-27T01:10:53;5.63;;;2.45;;
2211;SDS011;48849;48.758;9.158;2024-01-27T01:13:20;4.93;;;3.05;;
2211;SDS011;48849;48.758;9.158;2024-01-27T01:15:48;3.03;;;2.38;;
2211;SDS011;48849;48.758;9.158;2024-01-27T01:18:15;10.73;;;3.13;;
2211;SDS011;48849;48.758;9.158;2024-01-27T01:20:41;3.47;;;2.45;;
2211;SDS011;48849;48.758;9.158;2024-01-27T01:23:08;2.85;;;2.10;;
2211;SDS011;48849;48.758;9.158;2024-01-27T01:25:35;2.75;;;2.42;;
2211;SDS011;48849;48.758;9.158;2024-01-27T01:28:01;4.53;;;2.60;;
2211;SDS011;48849;48.758;9.158;2024-01-27T01:30:28;4.82;;;2.72;;
2211;SDS011;48849;48.758;9.158;2024-01-27T01:32:56;4.50;;;2.72;;
2211;SDS011;48849;48.758;9.158;2024-01-27T01:35:23;7.70;;;2.60;;
2211;SDS011;48849;48.758;9.158;2024-01-27T01:37:50;3.92;;;2.40;;
2211;SDS011;48849;48.758;9.158;2024-01-27T01:40:17;3.40;;;2.95;;
2211;SDS011;48849;48.758;9.158;2024-01-27T01:42:47;7.30;;;2.72;;
2211;SDS011;48849;48.758;9.158;2024-01-27T01:45:16;4.10;;;2.65;;
2211;SDS011;48849;48.758;9.158;2024-01-27T01:47:43;6.95;;;2.67;;
2211;SDS011;48849;48.758;9.158;2024-01-27T01:50:12;3.28;;;2.25;;
2211;SDS011;48849;48.758;9.158;2024-01-27T01:52:39;5.85;;;2.97;;
2211;SDS011;48849;48.758;9.158;2024-01-27T01:55:06;3.28;;;2.67;;
2211;SDS011;48849;48.758;9.158;2024-01-27T01:57:33;3.35;;;2.60;;
2211;SDS011;48849;48.758;9.158;2024-01-27T02:00:00;3.60;;;2.75;;
2211;SDS011;48849;48.758;9.158;2024-01-27T02:02:26;3.15;;;2.50;;
2211;SDS011;48849;48.758;9.158;2024-01-27T02:04:53;5.93;;;2.63;;
2211;SDS011;48849;48.758;9.158;2024-01-27T02:07:21;3.85;;;2.40;;
2211;SDS011;48849;48.758;9.158;2024-01-27T02:09:48;3.65;;;1.92;;
2211;SDS011;48849;48.758;9.158;2024-01-27T02:12:14;4.65;;;2.38;;
2211;SDS011;48849;48.758;9.158;2024-01-27T02:14:41;4.15;;;2.63;;
2211;SDS011;48849;48.758;9.158;2024-01-27T02:17:08;4.90;;;2.85;;
2211;SDS011;48849;48.758;9.158;2024-01-27T02:19:34;3.15;;;2.42;;
2211;SDS011;48849;48.758;9.158;2024-01-27T02:22:01;3.05;;;2.22;;
2211;SDS011;48849;48.758;9.158;2024-01-27T02:24:29;8.30;;;2.70;;
2211;SDS011;48849;48.758;9.158;2024-01-27T02:26:56;3.88;;;2.60;;
2211;SDS011;48849;48.758;9.158;2024-01-27T02:29:23;4.88;;;2.70;;
2211;SDS011;48849;48.758;9.158;2024-01-27T02:31:52;5.03;;;2.90;;
2211;SDS011;48849;48.758;9.158;2024-01-27T02:34:19;5.35;;;2.50;;
2211;SDS011;48849;48.758;9.158;2024-01-27T02:36:46;5.53;;;2.75;;
2211;SDS011;48849;48.758;9.158;2024-01-27T02:39:12;7.60;;;2.50;;
2211;SDS011;48849;48.758;9.158;2024-01-27T02:41:40;3.22;;;2.45;;
2211;SDS011;48849;48.758;9.158;2024-01-27T02:44:07;9.02;;;3.17;;
2211;SDS011;48849;48.758;9.158;2024-01-27T02:46:34;2.50;;;2.30;;
2211;SDS011;48849;48.758;9.158;2024-01-27T02:49:00;3.40;;;2.42;;
2211;SDS011;48849;48.758;9.158;2024-01-27T02:51:27;2.85;;;2.30;;
2211;SDS011;48849;48.758;9.158;2024-01-27T02:53:54;3.15;;;2.38;;
2211;SDS011;48849;48.758;9.158;2024-01-27T02:56:20;6.50;;;2.53;;
2211;SDS011;48849;48.758;9.158;2024-01-27T02:58:48;3.03;;;2.25;;
2211;SDS011;48849;48.758;9.158;2024-01-27T03:01:15;5.07;;;2.80;;
2211;SDS011;48849;48.758;9.158;2024-01-27T03:03:42;2.55;;;2.13;;
2211;SDS011;48849;48.758;9.158;2024-01-27T03:06:09;4.93;;;2.60;;
2211;SDS011;48849;48.758;9.158;2024-01-27T03:08:35;3.92;;;2.20;;
2211;SDS011;48849;48.758;9.158;2024-01-27T03:11:02;3.55;;;2.38;;
2211;SDS011;48849;48.758;9.158;2024-01-27T03:13:29;4.10;;;2.58;;
2211;SDS011;48849;48.758;9.158;2024-01-27T03:15:58;4.30;;;2.65;;
2211;SDS011;48849;48.758;9.158;2024-01-27T03:18:24;5.32;;;2.58;;
2211;SDS011;48849;48.758;9.158;2024-01-27T03:20:51;4.43;;;2.25;;
2211;SDS011;48849;48.758;9.158;2024-01-27T03:23:18;5.15;;;2.70;;
2211;SDS011;48849;48.758;9.158;2024-01-27T03:25:44;8.05;;;3.10;;
2211;SDS011;48849;48.758;9.158;2024-01-27T03:28:11;2.45;;;2.20;;
2211;SDS011;48849;48.758;9.158;2024-01-27T03:30:38;4.45;;;2.35;;
2211;SDS011;48849;48.758;9.158;2024-01-27T03:33:06;3.03;;;2.20;;
2211;SDS011;48849;48.758;9.158;2024-01-27T03:35:35;4.72;;;2.33;;
2211;SDS011;48849;48.758;9.158;2024-01-27T03:38:02;4.07;;;2.95;;
2211;SDS011;48849;48.758;9.158;2024-01-27T03:40:29;6.72;;;2.67;;
2211;SDS011;48849;48.758;9.158;2024-01-27T03:42:56;8.13;;;2.67;;
2211;SDS011;48849;48.758;9.158;2024-01-27T03:45:23;2.47;;;2.13;;
2211;SDS011;48849;48.758;9.158;2024-01-27T03:47:49;4.57;;;2.70;;
2211;SDS011;48849;48.758;9.158;2024-01-27T03:50:17;3.95;;;2.80;;
2211;SDS011;48849;48.758;9.158;2024-01-27T03:52:44;3.78;;;2.28;;
2211;SDS011;48849;48.758;9.158;2024-01-27T03:55:11;4.40;;;2.20;;
2211;SDS011;48849;48.758;9.158;2024-01-27T03:57:38;3.42;;;2.75;;
2211;SDS011;48849;48.758;9.158;2024-01-27T04:00:05;5.07;;;2.58;;
2211;SDS011;48849;48.758;9.158;2024-01-27T04:02:32;4.72;;;2.20;;
2211;SDS011;48849;48.758;9.158;2024-01-27T04:04:59;3.75;;;2.03;;
2211;SDS011;48849;48.758;9.158;2024-01-27T04:07:27;3.00;;;2.30;;
2211;SDS011;48849;48.758;9.158;2024-01-27T04:09:54;4.28;;;2.90;;
2211;SDS011;48849;48.758;9.158;2024-01-27T04:12:21;8.98;;;2.80;;
2211;SDS011;48849;48.758;9.158;2024-01-27T04:14:47;6.40;;;3.10;;
2211;SDS011;48849;48.758;9.158;2024-01-27T04:17:14;3.80;;;2.78;;
2211;SDS011;48849;48.758;9.158;2024-01-27T04:19:41;4.90;;;2.90;;
2211;SDS011;48849;48.758;9.158;2024-01-27T04:22:08;4.90;;;2.65;;
2211;SDS011;48849;48.758;9.158;2024-01-27T04:24:36;7.72;;;3.30;;
2211;SDS011;48849;48.758;9.158;2024-01-27T04:27:02;3.47;;;2.80;;
2211;SDS011;48849;48.758;9.158;2024-01-27T04:29:29;5.47;;;3.00;;
2211;SDS011;48849;48.758;9.158;2024-01-27T04:31:56;3.92;;;2.70;;
2211;SDS011;48849;48.758;9.158;2024-01-27T04:34:23;5.50;;;2.88;;
2211;SDS011;48849;48.758;9.158;2024-01-27T04:36:50;8.38;;;2.85;;
2211;SDS011;48849;48.758;9.158;2024-01-27T04:39:17;5.40;;;2.80;;
2211;SDS011;48849;48.758;9.158;2024-01-27T04:41:45;5.00;;;2.92;;
2211;SDS011;48849;48.758;9.158;2024-01-27T04:44:12;6.00;;;2.80;;
2211;SDS011;48849;48.758;9.158;2024-01-27T04:46:38;4.55;;;2.80;;
2211;SDS011;48849;48.758;9.158;2024-01-27T04:49:05;4.78;;;2.60;;
2211;SDS011;48849;48.758;9.158;2024-01-27T04:51:32;5.53;;;2.70;;
2211;SDS011;48849;48.758;9.158;2024-01-27T04:53:59;7.43;;;2.80;;
2211;SDS011;48849;48.758;9.158;2024-01-27T04:56:25;6.45;;;3.05;;
2211;SDS011;48849;48.758;9.158;2024-01-27T04:58:53;4.70;;;2.85;;
2211;SDS011;48849;48.758;9.158;2024-01-27T05:01:20;3.22;;;2.42;;
2211;SDS011;48849;48.758;9.158;2024-01-27T05:03:47;5.82;;;2.88;;
2211;SDS011;48849;48.758;9.158;2024-01-27T05:06:13;13.10;;;2.83;;
2211;SDS011;48849;48.758;9.158;2024-01-27T05:08:40;5.82;;;2.65;;
2211;SDS011;48849;48.758;9.158;2024-01-27T05:11:07;6.72;;;2.80;;
2211;SDS011;48849;48.758;9.158;2024-01-27T05:13:34;7.45;;;3.10;;
2211;SDS011;48849;48.758;9.158;2024-01-27T05:16:02;3.90;;;2.65;;
2211;SDS011;48849;48.758;9.158;2024-01-27T05:18:28;4.80;;;2.67;;
2211;SDS011;48849;48.758;9.158;2024-01-27T05:20:55;5.55;;;2.53;;
2211;SDS011;48849;48.758;9.158;2024-01-27T05:23:22;5.63;;;2.75;;
2211;SDS011;48849;48.758;9.158;2024-01-27T05:25:49;6.70;;;3.05;;
2211;SDS011;48849;48.758;9.158;2024-01-27T05:28:15;4.47;;;2.17;;
2211;SDS011;48849;48.758;9.158;2024-01-27T05:30:42;6.85;;;3.00;;
2211;SDS011;48849;48.758;9.158;2024-01-27T05:33:11;5.45;;;2.67;;
2211;SDS011;48849;48.758;9.158;2024-01-27T05:35:37;5.28;;;2.83;;
2211;SDS011;48849;48.758;9.158;2024-01-27T05:38:04;6.93;;;3.05;;
2211;SDS011;48849;48.758;9.158;2024-01-27T05:40:31;4.43;;;2.50;;
2211;SDS011;48849;48.758;9.158;2024-01-27T05:42:57;7.45;;;2.90;;
2211;SDS011;48849;48.758;9.158;2024-01-27T05:45:24;2.97;;;2.60;;
2211;SDS011;48849;48.758;9.158;2024-01-27T05:47:52;8.70;;;2.78;;
2211;SDS011;48849;48.758;9.158;2024-01-27T05:50:20;3.10;;;2.45;;
2211;SDS011;48849;48.758;9.158;2024-01-27T05:52:47;3.17;;;2.47;;
2211;SDS011;48849;48.758;9.158;2024-01-27T05:55:14;5.72;;;3.15;;
2211;SDS011;48849;48.758;9.158;2024-01-27T05:57:42;6.82;;;2.90;;
2211;SDS011;48849;48.758;9.158;2024-01-27T06:00:09;3.65;;;3.00;;
2211;SDS011;48849;48.758;9.158;2024-01-27T06:02:36;5.95;;;2.97;;
2211;SDS011;48849;48.758;9.158;2024-01-27T06:05:03;8.25;;;3.70;;
2211;SDS011;48849;48.758;9.158;2024-01-27T06:07:32;2.78;;;2.58;;
2211;SDS011;48849;48.758;9.158;2024-01-27T06:09:59;6.28;;;2.95;;
2211;SDS011;48849;48.758;9.158;2024-01-27T06:12:25;9.73;;;3.10;;
2211;SDS011;48849;48.758;9.158;2024-01-27T06:14:52;4.43;;;2.63;;
2211;SDS011;48849;48.758;9.158;2024-01-27T06:17:19;7.00;;;3.30;;
2211;SDS011;48849;48.758;9.158;2024-01-27T06:19:45;5.28;;;2.83;;
2211;SDS011;48849;48.758;9.158;2024-01-27T06:22:12;4.57;;;2.75;;
2211;SDS011;48849;48.758;9.158;2024-01-27T06:24:42;6.60;;;2.95;;
2211;SDS011;48849;48.758;9.158;2024-01-27T06:27:10;5.63;;;2.90;;
2211;SDS011;48849;48.758;9.158;2024-01-27T06:29:37;3.67;;;2.63;;
2211;SDS011;48849;48.758;9.158;2024-01-27T06:32:05;6.43;;;2.90;;
2211;SDS011;48849;48.758;9.158;2024-01-27T06:34:32;7.55;;;2.95;;
2211;SDS011;48849;48.758;9.158;2024-01-27T06:36:58;5.70;;;2.97;;
2211;SDS011;48849;48.758;9.158;2024-01-27T06:39:25;5.75;;;2.70;;
2211;SDS011;48849;48.758;9.158;2024-01-27T06:41:55;12.05;;;2.92;;
2211;SDS011;48849;48.758;9.158;2024-01-27T06:44:21;4.90;;;2.90;;
2211;SDS011;48849;48.758;9.158;2024-01-27T06:46:48;3.95;;;2.97;;
2211;SDS011;48849;48.758;9.158;2024-01-27T06:49:15;6.68;;;2.90;;
2211;SDS011;48849;48.758;9.158;2024-01-27T06:51:43;6.43;;;3.20;;
2211;SDS011;48849;48.758;9.158;2024-01-27T06:54:10;8.02;;;3.65;;
2211;SDS011;48849;48.758;9.158;2024-01-27T06:56:36;5.93;;;3.13;;
2211;SDS011;48849;48.758;9.158;2024-01-27T06:59:04;5.82;;;3.00;;
2211;SDS011;48849;48.758;9.158;2024-01-27T07:01:31;8.55;;;3.42;;
2211;SDS011;48849;48.758;9.158;2024-01-27T07:03:58;5.15;;;3.10;;
2211;SDS011;48849;48.758;9.158;2024-01-27T07:06:25;6.25;;;3.05;;
2211;SDS011;48849;48.758;9.158;2024-01-27T07:08:52;5.05;;;2.97;;
2211;SDS011;48849;48.758;9.158;2024-01-27T07:11:18;12.07;;;3.55;;
2211;SDS011;48849;48.758;9.158;2024-01-27T07:13:45;6.13;;;3.03;;
2211;SDS011;48849;48.758;9.158;2024-01-27T07:16:13;3.97;;;3.03;;
2211;SDS011;48849;48.758;9.158;2024-01-27T07:18:40;5.00;;;3.42;;
2211;SDS011;48849;48.758;9.158;2024-01-27T07:21:07;6.38;;;3.38;;
2211;SDS011;48849;48.758;9.158;2024-01-27T07:23:34;5.70;;;3.80;;
2211;SDS011;48849;48.758;9.158;2024-01-27T07:26:03;5.68;;;3.67;;
2211;SDS011;48849;48.758;9.158;2024-01-27T07:28:32;5.93;;;3.50;;
2211;SDS011;48849;48.758;9.158;2024-01-27T07:30:59;6.35;;;2.90;;
2211;SDS011;48849;48.758;9.158;2024-01-27T07:33:27;7.43;;;3.38;;
2211;SDS011;48849;48.758;9.158;2024-01-27T07:35:54;5.07;;;3.35;;
2211;SDS011;48849;48.758;9.158;2024-01-27T07:38:21;8.65;;;3.22;;
2211;SDS011;48849;48.758;9.158;2024-01-27T07:40:47;9.23;;;3.90;;
2211;SDS011;48849;48.758;9.158;2024-01-27T07:43:14;8.18;;;3.75;;
2211;SDS011;48849;48.758;9.158;2024-01-27T07:45:41;6.85;;;3.85;;
2211;SDS011;48849;48.758;9.158;2024-01-27T07:48:09;7.78;;;3.58;;
2211;SDS011;48849;48.758;9.158;2024-01-27T07:50:37;8.00;;;3.25;;
2211;SDS011;48849;48.758;9.158;2024-01-27T07:53:04;8.63;;;3.90;;
2211;SDS011;48849;48.758;9.158;2024-01-27T07:55:31;5.25;;;3.33;;
2211;SDS011;48849;48.758;9.158;2024-01-27T07:57:58;8.52;;;3.80;;
2211;SDS011;48849;48.758;9.158;2024-01-27T08:00:24;7.95;;;3.80;;
2211;SDS011;48849;48.758;9.158;2024-01-27T08:02:51;8.13;;;3.25;;
2211;SDS011;48849;48.758;9.158;2024-01-27T08:05:18;9.75;;;4.65;;
2211;SDS011;48849;48.758;9.158;2024-01-27T08:07:46;9.00;;;4.90;;
2211;SDS011;48849;48.758;9.158;2024-01-27T08:10:13;6.50;;;4.00;;
2211;SDS011;48849;48.758;9.158;2024-01-27T08:12:40;7.63;;;4.35;;
2211;SDS011;48849;48.758;9.158;2024-01-27T08:15:07;7.03;;;4.95;;
2211;SDS011;48849;48.758;9.158;2024-01-27T08:17:35;6.70;;;4.55;;
2211;SDS011;48849;48.758;9.158;2024-01-27T08:20:02;6.88;;;3.95;;
2211;SDS011;48849;48.758;9.158;2024-01-27T08:22:30;7.38;;;4.30;;
2211;SDS011;48849;48.758;9.158;2024-01-27T08:24:58;7.53;;;4.85;;
2211;SDS011;48849;48.758;9.158;2024-01-27T08:27:25;8.73;;;5.50;;
2211;SDS011;48849;48.758;9.158;2024-01-27T08:29:51;11.85;;;5.25;;
2211;SDS011;48849;48.758;9.158;2024-01-27T08:32:18;7.47;;;4.88;;
2211;SDS011;48849;48.758;9.158;2024-01-27T08:34:45;6.78;;;4.50;;
2211;SDS011;48849;48.758;9.158;2024-01-27T08:37:17;8.45;;;4.85;;
2211;SDS011;48849;48.758;9.158;2024-01-27T08:39:44;8.65;;;5.13;;
2211;SDS011;48849;48.758;9.158;2024-01-27T08:42:12;8.93;;;4.63;;
2211;SDS011;48849;48.758;9.158;2024-01-27T08:44:39;9.10;;;4.60;;
2211;SDS011;48849;48.758;9.158;2024-01-27T08:47:06;6.38;;;4.47;;
2211;SDS011;48849;48.758;9.158;2024-01-27T08:49:32;10.38;;;4.80;;
2211;SDS011;48849;48.758;9.158;2024-01-27T08:51:59;8.15;;;5.53;;
2211;SDS011;48849;48.758;9.158;2024-01-27T08:54:26;11.77;;;5.55;;
2211;SDS011;48849;48.758;9.158;2024-01-27T08:56:53;9.95;;;5.25;;
2211;SDS011;48849;48.758;9.158;2024-01-27T08:59:21;8.50;;;4.97;;
2211;SDS011;48849;48.758;9.158;2024-01-27T09:01:47;9.00;;;6.80;;
2211;SDS011;48849;48.758;9.158;2024-01-27T09:04:14;11.68;;;6.10;;
2211;SDS011;48849;48.758;9.158;2024-01-27T09:06:41;9.93;;;6.68;;
2211;SDS011;48849;48.758;9.158;2024-01-27T09:09:07;7.30;;;5.70;;
2211;SDS011;48849;48.758;9.158;2024-01-27T09:11:34;7.85;;;5.68;;
2211;SDS011;48849;48.758;9.158;2024-01-27T09:14:01;12.85;;;6.15;;
2211;SDS011;48849;48.758;9.158;2024-01-27T09:16:31;12.35;;;6.25;;
2211;SDS011;48849;48.758;9.158;2024-01-27T09:18:58;12.10;;;6.20;;
2211;SDS011;48849;48.758;9.158;2024-01-27T09:21:25;5.78;;;4.65;;
2211;SDS011;48849;48.758;9.158;2024-01-27T09:23:55;10.68;;;5.80;;
2211;SDS011;48849;48.758;9.158;2024-01-27T09:26:22;18.33;;;6.32;;
2211;SDS011;48849;48.758;9.158;2024-01-27T09:28:48;10.07;;;5.70;;
2211;SDS011;48849;48.758;9.158;2024-01-27T09:31:19;8.27;;;5.45;;
2211;SDS011;48849;48.758;9.158;2024-01-27T09:33:49;12.23;;;6.20;;
2211;SDS011;48849;48.758;9.158;2024-01-27T09:36:18;9.20;;;5.68;;
2211;SDS011;48849;48.758;9.158;2024-01-27T09:38:46;12.00;;;5.47;;
2211;SDS011;48849;48.758;9.158;2024-01-27T09:41:13;10.30;;;6.68;;
2211;SDS011;48849;48.758;9.158;2024-01-27T09:43:41;7.47;;;5.70;;
2211;SDS011;48849;48.758;9.158;2024-01-27T09:46:09;9.50;;;5.82;;
2211;SDS011;48849;48.758;9.158;2024-01-27T09:48:36;8.52;;;5.65;;
2211;SDS011;48849;48.758;9.158;2024-01-27T09:51:05;11.80;;;6.10;;
2211;SDS011;48849;48.758;9.158;2024-01-27T09:53:33;7.47;;;6.30;;
2211;SDS011;48849;48.758;9.158;2024-01-27T09:56:00;7.80;;;4.82;;
2211;SDS011;48849;48.758;9.158;2024-01-27T09:58:28;10.27;;;5.30;;
2211;SDS011;48849;48.758;9.158;2024-01-27T10:00:56;9.73;;;6.05;;
2211;SDS011;48849;48.758;9.158;2024-01-27T10:03:24;8.02;;;5.00;;
2211;SDS011;48849;48.758;9.158;2024-01-27T10:05:52;10.43;;;5.20;;
2211;SDS011;48849;48.758;9.158;2024-01-27T10:08:21;6.15;;;5.05;;
2211;SDS011;48849;48.758;9.158;2024-01-27T10:10:49;9.80;;;5.60;;
2211;SDS011;48849;48.758;9.158;2024-01-27T10:13:21;7.35;;;5.20;;
2211;SDS011;48849;48.758;9.158;2024-01-27T10:15:58;6.85;;;5.03;;
2211;SDS011;48849;48.758;9.158;2024-01-27T10:18:27;7.75;;;5.13;;
2211;SDS011;48849;48.758;9.158;2024-01-27T10:20:53;11.68;;;5.45;;
2211;SDS011;48849;48.758;9.158;2024-01-27T10:23:21;8.82;;;5.10;;
2211;SDS011;48849;48.758;9.158;2024-01-27T10:25:48;8.27;;;5.47;;
2211;SDS011;48849;48.758;9.158;2024-01-27T10:28:17;11.65;;;5.78;;
2211;SDS011;48849;48.758;9.158;2024-01-27T10:30:44;10.77;;;5.20;;
2211;SDS011;48849;48.758;9.158;2024-01-27T10:33:13;14.05;;;5.40;;
2211;SDS011;48849;48.758;9.158;2024-01-27T10:35:40;9.68;;;4.70;;
2211;SDS011;48849;48.758;9.158;2024-01-27T10:38:07;7.38;;;4.28;;
2211;SDS011;48849;48.758;9.158;2024-01-27T10:40:36;6.35;;;4.82;;
2211;SDS011;48849;48.758;9.158;2024-01-27T10:43:03;6.38;;;4.35;;
2211;SDS011;48849;48.758;9.158;2024-01-27T10:45:34;10.35;;;5.35;;
2211;SDS011;48849;48.758;9.158;2024-01-27T10:48:02;10.98;;;4.75;;
2211;SDS011;48849;48.758;9.158;2024-01-27T10:50:31;8.10;;;4.63;;
2211;SDS011;48849;48.758;9.158;2024-01-27T10:53:01;7.32;;;4.22;;
2211;SDS011;48849;48.758;9.158;2024-01-27T10:55:30;11.93;;;4.68;;
2211;SDS011;48849;48.758;9.158;2024-01-27T10:58:00;12.65;;;5.07;;
2211;SDS011;48849;48.758;9.158;2024-01-27T11:00:28;7.95;;;5.05;;
2211;SDS011;48849;48.758;9.158;2024-01-27T11:02:57;7.43;;;4.60;;
2211;SDS011;48849;48.758;9.158;2024-01-27T11:05:25;12.65;;;5.28;;
2211;SDS011;48849;48.758;9.158;2024-01-27T11:07:53;8.60;;;4.82;;
2211;SDS011;48849;48.758;9.158;2024-01-27T11:10:21;10.02;;;4.93;;
2211;SDS011;48849;48.758;9.158;2024-01-27T11:12:48;8.82;;;4.53;;
2211;SDS011;48849;48.758;9.158;2024-01-27T11:15:17;6.30;;;4.85;;
2211;SDS011;48849;48.758;9.158;2024-01-27T11:17:44;7.20;;;4.57;;
2211;SDS011;48849;48.758;9.158;2024-01-27T11:20:11;9.57;;;4.20;;
2211;SDS011;48849;48.758;9.158;2024-01-27T11:22:41;8.57;;;5.05;;
2211;SDS011;48849;48.758;9.158;2024-01-27T11:25:14;9.52;;;5.55;;
2211;SDS011;48849;48.758;9.158;2024-01-27T11:27:42;6.78;;;4.20;;
2211;SDS011;48849;48.758;9.158;2024-01-27T11:30:25;6.40;;;4.47;;
2211;SDS011;48849;48.758;9.158;2024-01-27T11:32:54;9.13;;;5.05;;
2211;SDS011;48849;48.758;9.158;2024-01-27T11:35:22;10.73;;;5.78;;
2211;SDS011;48849;48.758;9.158;2024-01-27T11:37:49;5.90;;;5.30;;
2211;SDS011;48849;48.758;9.158;2024-01-27T11:40:16;8.27;;;6.05;;
2211;SDS011;48849;48.758;9.158;2024-01-27T11:42:43;9.23;;;5.25;;
2211;SDS011;48849;48.758;9.158;2024-01-27T11:45:10;6.80;;;4.65;;
2211;SDS011;48849;48.758;9.158;2024-01-27T11:47:38;5.68;;;4.60;;
2211;SDS011;48849;48.758;9.158;2024-01-27T11:50:05;6.05;;;4.85;;
2211;SDS011;48849;48.758;9.158;2024-01-27T11:52:33;8.15;;;5.47;;
2211;SDS011;48849;48.758;9.158;2024-01-27T11:55:00;9.48;;;4.80;;
2211;SDS011;48849;48.758;9.158;2024-01-27T11:57:27;9.93;;;5.00;;
2211;SDS011;48849;48.758;9.158;2024-01-27T11:59:54;7.00;;;4.28;;
2211;SDS011;48849;48.758;9.158;2024-01-27T12:02:21;7.75;;;4.95;;
2211;SDS011;48849;48.758;9.158;2024-01-27T12:04:49;6.40;;;4.10;;
2211;SDS011;48849;48.758;9.158;2024-01-27T12:07:16;13.25;;;5.38;;
2211;SDS011;48849;48.758;9.158;2024-01-27T12:09:45;11.80;;;5.63;;
2211;SDS011;48849;48.758;9.158;2024-01-27T12:12:12;11.63;;;6.95;;
2211;SDS011;48849;48.758;9.158;2024-01-27T12:14:40;6.32;;;5.60;;
2211;SDS011;48849;48.758;9.158;2024-01-27T12:17:09;7.30;;;4.03;;
2211;SDS011;48849;48.758;9.158;2024-01-27T12:19:36;7.88;;;4.60;;
2211;SDS011;48849;48.758;9.158;2024-01-27T12:22:04;7.57;;;4.05;;
2211;SDS011;48849;48.758;9.158;2024-01-27T12:24:46;8.55;;;4.20;;
2211;SDS011;48849;48.758;9.158;2024-01-27T12:27:13;5.13;;;4.13;;
2211;SDS011;48849;48.758;9.158;2024-01-27T12:29:40;10.25;;;4.90;;
2211;SDS011;48849;48.758;9.158;2024-01-27T12:32:07;7.13;;;4.13;;
2211;SDS011;48849;48.758;9.158;2024-01-27T12:34:38;7.03;;;4.18;;
2211;SDS011;48849;48.758;9.158;2024-01-27T12:37:07;8.57;;;4.82;;
2211;SDS011;48849;48.758;9.158;2024-01-27T12:39:36;9.02;;;3.70;;
2211;SDS011;48849;48.758;9.158;2024-01-27T12:42:03;9.25;;;4.03;;
2211;SDS011;48849;48.758;9.158;2024-01-27T12:44:30;7.00;;;4.50;;
2211;SDS011;48849;48.758;9.158;2024-01-27T12:46:57;13.55;;;4.63;;
2211;SDS011;48849;48.758;9.158;2024-01-27T12:49:24;9.23;;;4.95;;
2211;SDS011;48849;48.758;9.158;2024-01-27T12:51:51;9.43;;;4.45;;
2211;SDS011;48849;48.758;9.158;2024-01-27T12:54:19;10.23;;;4.80;;
2211;SDS011;48849;48.758;9.158;2024-01-27T12:56:46;10.65;;;4.95;;
2211;SDS011;48849;48.758;9.158;2024-01-27T12:59:13;6.60;;;4.70;;
2211;SDS011;48849;48.758;9.158;2024-01-27T13:01:40;11.05;;;4.85;;
2211;SDS011;48849;48.758;9.158;2024-01-27T13:04:07;9.35;;;4.28;;
2211;SDS011;48849;48.758;9.158;2024-01-27T13:06:33;11.93;;;4.57;;
2211;SDS011;48849;48.758;9.158;2024-01-27T13:09:00;9.60;;;4.55;;
2211;SDS011;48849;48.758;9.158;2024-01-27T13:11:28;7.35;;;4.53;;
2211;SDS011;48849;48.758;9.158;2024-01-27T13:13:55;5.47;;;4.00;;
2211;SDS011;48849;48.758;9.158;2024-01-27T13:16:22;9.25;;;4.63;;
2211;SDS011;48849;48.758;9.158;2024-01-27T13:18:48;7.78;;;3.60;;
2211;SDS011;48849;48.758;9.158;2024-01-27T13:21:15;5.57;;;3.80;;
2211;SDS011;48849;48.758;9.158;2024-01-27T13:23:42;6.22;;;4.00;;
2211;SDS011;48849;48.758;9.158;2024-01-27T13:26:08;6.32;;;4.10;;
2211;SDS011;48849;48.758;9.158;2024-01-27T13:28:37;5.55;;;4.20;;
2211;SDS011;48849;48.758;9.158;2024-01-27T13:31:03;4.22;;;3.35;;
2211;SDS011;48849;48.758;9.158;2024-01-27T13:33:30;7.50;;;4.30;;
2211;SDS011;48849;48.758;9.158;2024-01-27T13:35:57;7.32;;;3.10;;
2211;SDS011;48849;48.758;9.158;2024-01-27T13:38:24;8.98;;;3.85;;
2211;SDS011;48849;48.758;9.158;2024-01-27T13:40:51;7.13;;;4.20;;
2211;SDS011;48849;48.758;9.158;2024-01-27T13:43:18;3.25;;;2.95;;
2211;SDS011;48849;48.758;9.158;2024-01-27T13:45:46;5.70;;;3.35;;
2211;SDS011;48849;48.758;9.158;2024-01-27T13:48:13;5.00;;;3.20;;
2211;SDS011;48849;48.758;9.158;2024-01-27T13:50:40;6.05;;;3.40;;
2211;SDS011;48849;48.758;9.158;2024-01-27T13:53:07;6.18;;;4.38;;
2211;SDS011;48849;48.758;9.158;2024-01-27T13:55:34;6.10;;;4.32;;
2211;SDS011;48849;48.758;9.158;2024-01-27T13:58:01;9.77;;;4.75;;
2211;SDS011;48849;48.758;9.158;2024-01-27T14:00:27;9.52;;;4.20;;
2211;SDS011;48849;48.758;9.158;2024-01-27T14:02:55;6.18;;;3.80;;
2211;SDS011;48849;48.758;9.158;2024-01-27T14:05:22;5.72;;;3.67;;
2211;SDS011;48849;48.758;9.158;2024-01-27T14:07:49;7.63;;;3.55;;
2211;SDS011;48849;48.758;9.158;2024-01-27T14:10:16;5.15;;;3.50;;
2211;SDS011;48849;48.758;9.158;2024-01-27T14:12:42;4.90;;;3.88;;
2211;SDS011;48849;48.758;9.158;2024-01-27T14:15:09;7.63;;;4.05;;
2211;SDS011;48849;48.758;9.158;2024-01-27T14:17:36;7.30;;;4.55;;
2211;SDS011;48849;48.758;9.158;2024-01-27T14:20:05;6.88;;;5.03;;
2211;SDS011;48849;48.758;9.158;2024-01-27T14:22:34;8.80;;;5.38;;
2211;SDS011;48849;48.758;9.158;2024-01-27T14:25:01;11.18;;;6.30;;
2211;SDS011;48849;48.758;9.158;2024-01-27T14:27:28;9.50;;;5.40;;
2211;SDS011;48849;48.758;9.158;2024-01-27T14:29:55;6.40;;;4.30;;
2211;SDS011;48849;48.758;9.158;2024-01-27T14:32:22;8.77;;;4.10;;
2211;SDS011;48849;48.758;9.158;2024-01-27T14:34:49;6.93;;;3.13;;
2211;SDS011;48849;48.758;9.158;2024-01-27T14:37:17;5.15;;;3.05;;
2211;SDS011;48849;48.758;9.158;2024-01-27T14:39:44;8.88;;;3.60;;
2211;SDS011;48849;48.758;9.158;2024-01-27T14:42:13;5.50;;;3.10;;
2211;SDS011;48849;48.758;9.158;2024-01-27T14:44:42;3.88;;;3.05;;
2211;SDS011;48849;48.758;9.158;2024-01-27T14:47:10;9.55;;;3.13;;
2211;SDS011;48849;48.758;9.158;2024-01-27T14:49:37;8.48;;;3.17;;
2211;SDS011;48849;48.758;9.158;2024-01-27T14:52:04;3.40;;;2.88;;
2211;SDS011;48849;48.758;9.158;2024-01-27T14:54:33;6.20;;;3.22;;
2211;SDS011;48849;48.758;9.158;2024-01-27T14:57:00;5.93;;;2.70;;
2211;SDS011;48849;48.758;9.158;2024-01-27T14:59:28;6.03;;;3.03;;
2211;SDS011;48849;48.758;9.158;2024-01-27T15:01:55;5.00;;;2.92;;